• Join FlightAware (Why Join?)
  • Login
  • US Flag 
02:49AM EST


 

Airport Tracker/Info


-or-


 

Live Flight TrackerFlight Track Log ✈ LXJ437 ✈ 24-Jun-2013 ✈ KORD - KHPN

Flight Track Log - Related Links

Times and Time Zones

All times are in EDT time to prevent confusion due to time zone crossing. See the LXJ437 flight status page for this flight to view local times or setup timezone preferences in your user account.

Time Position Orientation Groundspeed Altitude Reporting Facility
EDT Latitude Longitude Course Direction KTS MPH feet Rate Location/Type
07:46PM 41.9667 -87.9333 251° West 179 206 1,800  Level Chicago TRACON
07:47PM 41.9500 -88.0000 251° West 213 245 3,700 2,340 Climbing Chicago TRACON
07:48PM 42.0167 -88.0167 349° North 271 312 6,300 3,300 Climbing Chicago TRACON
07:50PM 42.1836 -88.0231 358° North 311 358 14,100 3,720 Climbing Chicago Center
07:51PM 42.2728 -87.9964 12° North 338 389 18,500 3,780 Climbing Chicago Center
07:52PM 42.3614 -87.9383 26° Northeast 349 402 21,900 2,820 Climbing Chicago Center
07:53PM 42.4575 -87.8769 25° Northeast 377 434 24,300 2,580 Climbing Chicago Center
07:54PM 42.5578 -87.8100 26° Northeast 398 458 27,200 2,700 Climbing Chicago Center
07:55PM 42.6536 -87.7467 26° Northeast 387 445 29,900 1,800 Climbing Chicago Center
07:56PM 42.7753 -87.6622 27° Northeast 421 484 31,000 960 Climbing Chicago Center
07:57PM 42.8506 -87.5192 54° Northeast 464 534 32,000 900 Climbing Chicago Center
07:58PM 42.8619 -87.3581 84° East 474 545 32,900 1,080 Climbing Chicago Center
07:59PM 42.8772 -87.1742 83° East 487 560 34,300 1,860 Climbing Chicago Center
08:00PM 42.8939 -86.9953 83° East 480 552 36,800 2,340 Climbing Chicago Center
08:01PM 42.9158 -86.7961 81° East 448 516 39,100 1,800 Climbing Chicago Center
08:02PM 42.9319 -86.6319 82° East 439 505 40,600 1,440 Climbing Chicago Center
08:03PM 42.9483 -86.4697 82° East 436 502 42,100 1,200 Climbing Chicago Center
08:04PM 42.9642 -86.3108 82° East 426 490 43,100 720 Climbing Chicago Center
08:05PM 42.9783 -86.1528 83° East 424 488 43,700 540 Climbing Chicago Center
08:06PM 42.9961 -85.9769 82° East 436 502 44,300 600 Climbing Chicago Center
08:07PM 43.0114 -85.7975 83° East 446 513 45,000 300 Climbing Chicago Center
08:08PM 43.0278 -85.6342 82° East 442 509 45,000  Level Chicago Center
08:09PM 43.0436 -85.4636 83° East 450 518 45,000  Level Chicago Center
08:10PM 43.0583 -85.2903 83° East 458 527 45,000  Level Chicago Center
08:11PM 43.0742 -85.1133 83° East 468 539 45,000  Level Chicago Center
08:12PM 43.0931 -84.9044 83° East 464 534 45,000  Level Chicago Center
08:13PM 43.1072 -84.7294 84° East 465 535 45,000  Level Chicago Center
08:14PM 43.1217 -84.5517 84° East 470 541 45,000  Level Chicago Center
08:15PM 43.1356 -84.3739 84° East 472 543 45,000  Level Chicago Center
08:16PM 43.1503 -84.1950 84° East 474 545 45,000  Level Chicago Center
08:17PM 43.1647 -84.0142 84° East 478 550 45,000  Level Chicago Center
08:18PM 43.1783 -83.8361 84° East 474 545 45,000  Level Chicago Center
08:20PM 43.1956 -83.6219 84° East 473 544 45,000  Level Chicago Center
08:21PM 43.2083 -83.4436 84° East 471 542 45,000  Level Chicago Center
08:22PM 43.2206 -83.2653 85° East 471 542 45,000  Level Chicago Center
08:23PM 43.2347 -83.0225 85° East 477 549 45,000  Level Cleveland Center
08:24PM 43.2464 -82.8575 84° East 462 532 45,000  Level Cleveland Center
08:25PM 43.2497 -82.6811 88° East 455 524 45,000  Level Cleveland Center
08:26PM 43.2586 -82.5272 85° East 455 524 45,000  Level Cleveland Center
08:27PM 43.2167 -82.3833 112° Southeast 460 529 45,000  Level Toronto Center
08:28PM 43.2000 -82.2167 98° East 460 529 45,000  Level Toronto Center
08:29PM 43.1833 -82.0333 97° East 460 529 45,000  Level Toronto Center
08:30PM 43.1833 -81.8500 90° East 460 529 45,000  Level Toronto Center
08:31PM 43.1667 -81.6833 98° East 460 529 45,000  Level Toronto Center
08:32PM 43.1500 -81.5000 97° East 460 529 45,000  Level Toronto Center
08:33PM 43.1500 -81.3500 90° East 460 529 45,000  Level Toronto Center
08:34PM 43.1333 -81.1667 97° East 460 529 45,000  Level Toronto Center
08:35PM 43.1167 -80.9833 97° East 460 529 45,000  Level Toronto Center
08:36PM 43.1000 -80.8167 98° East 460 529 45,000  Level Toronto Center
08:38PM 43.0833 -80.4833 94° East 460 529 45,000  Level Toronto Center
08:39PM 43.0667 -80.3000 97° East 460 529 45,000  Level Toronto Center
08:40PM 43.0500 -80.1333 98° East 460 529 45,000  Level Toronto Center
08:41PM 43.0333 -79.9500 97° East 460 529 45,000  Level Toronto Center
08:42PM 43.0167 -79.8000 99° East 450 518 45,000  Level Toronto Center
08:43PM 43.0167 -79.6167 90° East 450 518 45,000  Level Toronto Center
08:44PM 43.0000 -79.4333 97° East 450 518 45,000  Level Toronto Center
08:45PM 42.9833 -79.2667 98° East 460 529 45,000  Level Toronto Center
08:46PM 42.9667 -79.1167 99° East 450 518 45,000  Level Toronto Center
08:47PM 42.9500 -78.9333 97° East 460 529 45,000  Level Toronto Center
08:48PM 42.9333 -78.7500 97° East 460 529 45,000  Level Toronto Center
08:49PM 42.9167 -78.5667 97° East 460 529 45,000  Level Toronto Center
08:50PM 42.8667 -78.4000 112° Southeast 460 529 45,000 -600 Level Toronto Center
08:51PM 42.8486 -78.2128 97° East 458 527 43,700 -1,200 Descending Cleveland Center
08:52PM 42.8133 -78.0303 105° East 469 540 42,300 -1,500 Descending Cleveland Center
08:53PM 42.7803 -77.8533 104° East 475 547 40,800 -2,220 Descending Cleveland Center
08:54PM 42.7447 -77.6794 106° East 475 547 37,900 -2,760 Descending Cleveland Center
08:55PM 42.7139 -77.5339 106° East 462 532 35,300 -2,400 Descending Cleveland Center
08:56PM 42.6800 -77.3606 105° East 462 532 33,100 -900 Descending Cleveland Center
08:58PM 42.6000 -77.0333 108° East 480 552 33,000 -60 Descending Toronto Center
08:59PM 42.5667 -76.8500 104° East 490 564 33,000  Level Toronto Center
09:00PM 42.5167 -76.6667 110° East 490 564 33,000  Level Toronto Center
09:01PM 42.5000 -76.4833 97° East 490 564 33,000  Level Toronto Center
09:02PM 42.4667 -76.3333 107° East 470 541 33,000 -300 Level Toronto Center
09:03PM 42.4333 -76.1500 104° East 470 541 32,500 -900 Descending Toronto Center
09:04PM 42.3833 -75.9833 112° Southeast 460 529 31,200 -1,500 Descending Toronto Center
09:05PM 42.3500 -75.8167 105° East 460 529 29,600 -2,040 Descending Toronto Center
09:06PM 42.3333 -75.6500 98° East 480 552 27,200 -2,400 Descending Toronto Center
09:07PM 42.2833 -75.4667 110° East 480 552 24,900 -2,280 Descending Toronto Center
09:08PM 42.2500 -75.2833 104° East 470 541 22,700 -1,800 Descending Toronto Center
09:08PM 42.2464 -75.2700 110° East 477 549 22,000 -1,980 Descending Boston Center
09:09PM 42.2050 -75.0833 107° East 468 539 19,500 -2,040 Descending Boston Center
09:10PM 42.1708 -74.9333 107° East 431 496 18,000 -780 Descending Boston Center
09:11PM 42.1111 -74.7967 120° Southeast 417 480 18,000  Level Boston Center
09:12PM 42.0414 -74.6344 120° Southeast 429 494 18,000 -540 Level Boston Center
09:13PM 41.9817 -74.4900 119° Southeast 446 513 17,000 -1,200 Descending Boston Center
09:14PM 41.9217 -74.3486 120° Southeast 441 507 15,600 -1,560 Descending Boston Center
09:15PM 41.8633 -74.2158 121° Southeast 429 494 13,900 -1,620 Descending Boston Center
09:16PM 41.8067 -74.0972 123° Southeast 403 464 12,400 -1,320 Descending Boston Center
09:17PM 41.7392 -74.0231 141° Southeast 306 352 11,300 -1,320 Descending Boston Center
09:18PM 41.6583 -73.9906 163° South 301 346 9,800 -1,440 Descending Boston Center
09:19PM 41.5833 -73.9500 158° South 313 360 8,700 -1,380 Descending New York TRACON
09:20PM 41.5167 -73.9167 159° South 308 354 7,300 -1,320 Descending New York TRACON
09:21PM 41.4333 -73.8833 163° South 277 319 6,100 -1,260 Descending New York TRACON
09:22PM 41.3667 -73.8167 143° Southeast 285 328 4,800 -1,260 Descending New York TRACON
09:23PM 41.3000 -73.7667 151° Southeast 291 335 3,600 -900 Descending New York TRACON
09:24PM 41.2333 -73.7000 143° Southeast 279 321 3,000 -300 Descending New York TRACON
09:25PM 41.1833 -73.6500 143° Southeast 258 297 3,000  Level New York TRACON
09:26PM 41.1333 -73.6000 143° Southeast 212 244 3,000 -300 Level New York TRACON
09:29PM 41.0667 -73.7000 246° West  Level FlightAware Approximate
09:29PM 40.9833 -73.5667 246° West 189 217 2,000  Level New York TRACON
09:31PM 40.9833 -73.6500 270° West 137 158 2,000  Level New York TRACON